createdAt,value
2022-08-05T00:01:28.384Z,717.77
2022-08-05T00:03:57.202Z,711.90
2022-08-05T00:06:28.926Z,711.30
2022-08-05T00:08:58.936Z,711.27
2022-08-05T00:11:30.311Z,711.30
2022-08-05T00:14:01.413Z,709.93
2022-08-05T00:16:35.711Z,710.80
2022-08-05T00:19:03.227Z,711.77
2022-08-05T00:21:30.672Z,712.47
2022-08-05T00:24:10.508Z,713.17
2022-08-05T00:26:37.768Z,715.90
2022-08-05T00:29:04.200Z,721.53
2022-08-05T00:31:41.495Z,721.10
2022-08-05T00:34:53.755Z,730.40
2022-08-05T00:37:09.765Z,724.37
2022-08-05T00:39:44.494Z,727.87
2022-08-05T00:42:32.062Z,710.10
2022-08-05T00:44:58.792Z,720.87
2022-08-05T00:47:26.065Z,715.10
2022-08-05T00:49:52.489Z,716.87
2022-08-05T00:52:18.952Z,722.63
2022-08-05T00:54:55.295Z,718.60
2022-08-05T00:57:22.890Z,714.07
2022-08-05T00:59:51.992Z,724.90
2022-08-05T01:02:18.458Z,706.10
2022-08-05T01:04:44.921Z,712.63
2022-08-05T01:07:17.865Z,714.00
2022-08-05T01:09:44.524Z,720.20
2022-08-05T01:12:18.720Z,727.23
2022-08-05T01:14:45.492Z,726.40
2022-08-05T01:17:12.147Z,718.50
2022-08-05T01:20:02.275Z,722.57
2022-08-05T01:22:28.031Z,718.63
2022-08-05T01:24:54.753Z,710.20
2022-08-05T01:27:22.119Z,700.87
2022-08-05T01:29:48.762Z,696.00
2022-08-05T01:32:18.399Z,676.90
2022-08-05T01:34:45.244Z,692.13
2022-08-05T01:37:18.120Z,678.83
2022-08-05T01:39:51.808Z,680.80
2022-08-05T01:42:20.641Z,691.77
2022-08-05T01:44:53.848Z,685.53
2022-08-05T01:47:21.079Z,681.57
2022-08-05T01:50:02.107Z,689.70
2022-08-05T01:52:29.585Z,672.50
2022-08-05T01:54:56.782Z,691.83
2022-08-05T01:58:12.869Z,691.17
2022-08-05T02:00:11.836Z,685.60
2022-08-05T02:02:38.728Z,690.37
2022-08-05T02:05:17.763Z,688.03
2022-08-05T02:07:57.913Z,688.57
2022-08-05T02:10:28.685Z,682.93
2022-08-05T02:12:55.283Z,691.17
2022-08-05T02:15:21.738Z,689.67
2022-08-05T02:18:31.652Z,687.03
2022-08-05T02:20:39.038Z,677.00
2022-08-05T02:23:05.725Z,681.73
2022-08-05T02:25:49.179Z,686.50
2022-08-05T02:28:16.777Z,691.73
2022-08-05T02:30:56.491Z,704.90
2022-08-05T02:33:24.685Z,706.10
2022-08-05T02:36:04.591Z,707.00
2022-08-05T02:38:35.006Z,708.90
2022-08-05T02:41:14.443Z,708.63
2022-08-05T02:44:02.327Z,712.90
2022-08-05T02:46:30.283Z,716.67
2022-08-05T02:48:56.869Z,716.47
2022-08-05T02:51:48.471Z,721.53
2022-08-05T02:54:09.727Z,707.03
2022-08-05T02:56:56.155Z,705.10
2022-08-05T02:59:26.928Z,707.53
2022-08-05T03:01:54.287Z,705.63
2022-08-05T03:04:20.756Z,698.30
2022-08-05T03:06:56.096Z,701.40
2022-08-05T03:09:36.326Z,709.40
2022-08-05T03:12:04.036Z,710.07
2022-08-05T03:14:30.497Z,703.93
2022-08-05T03:16:57.114Z,715.83
2022-08-05T03:19:33.738Z,717.50
2022-08-05T03:22:04.761Z,713.77
2022-08-05T03:24:42.624Z,710.97
2022-08-05T03:27:13.593Z,703.20
2022-08-05T03:29:45.200Z,712.73
2022-08-05T03:32:31.012Z,706.37
2022-08-05T03:34:57.815Z,697.67
2022-08-05T03:37:24.445Z,699.73
2022-08-05T03:39:59.096Z,692.37
2022-08-05T03:42:27.285Z,693.57
2022-08-05T03:44:55.704Z,695.53
2022-08-05T03:47:23.772Z,701.33
2022-08-05T03:49:51.388Z,697.83
2022-08-05T03:52:50.074Z,696.90
2022-08-05T03:56:01.935Z,700.40
2022-08-05T03:57:51.053Z,706.73
2022-08-05T04:00:17.496Z,699.07
2022-08-05T04:02:52.271Z,706.00
2022-08-05T04:05:25.248Z,713.33
2022-08-05T04:07:57.995Z,706.20
2022-08-05T04:10:25.408Z,715.93
2022-08-05T04:12:54.475Z,719.40
2022-08-05T04:15:21.256Z,712.50
2022-08-05T04:17:57.132Z,720.60
2022-08-05T04:20:23.864Z,708.93
2022-08-05T04:22:50.324Z,714.47
2022-08-05T04:25:16.987Z,714.30
2022-08-05T04:27:58.067Z,707.87
2022-08-05T04:30:26.571Z,702.17
2022-08-05T04:32:53.153Z,701.10
2022-08-05T04:35:20.010Z,700.53
2022-08-05T04:38:01.558Z,697.70
2022-08-05T04:40:32.545Z,681.33
2022-08-05T04:42:59.031Z,694.00
2022-08-05T04:45:31.157Z,690.70
2022-08-05T04:48:18.393Z,681.90
2022-08-05T04:51:03.547Z,684.67
2022-08-05T04:53:38.858Z,695.70
2022-08-05T04:56:33.517Z,685.70
2022-08-05T04:58:51.928Z,686.50
2022-08-05T05:02:05.971Z,695.63
2022-08-05T05:04:05.397Z,692.40
2022-08-05T05:06:39.450Z,686.43
2022-08-05T05:09:09.862Z,691.13
2022-08-05T05:11:52.819Z,685.73
2022-08-05T05:14:31.851Z,689.97
2022-08-05T05:17:01.407Z,693.77
2022-08-05T05:19:36.271Z,692.60
2022-08-05T05:22:24.597Z,699.03
2022-08-05T05:24:57.713Z,703.27
2022-08-05T05:27:26.248Z,701.40
2022-08-05T05:30:15.650Z,701.70
2022-08-05T05:32:56.386Z,706.33
2022-08-05T05:35:22.857Z,701.83
2022-08-05T05:37:59.810Z,707.20
2022-08-05T05:40:26.862Z,709.47
2022-08-05T05:42:54.586Z,703.07
2022-08-05T05:45:22.785Z,707.13
2022-08-05T05:48:06.593Z,710.97
2022-08-05T05:50:33.855Z,707.70
2022-08-05T05:53:00.615Z,710.67
2022-08-05T05:55:52.413Z,708.37
2022-08-05T05:58:13.501Z,703.73
2022-08-05T06:00:40.778Z,711.60
2022-08-05T06:03:40.131Z,715.07
2022-08-05T06:05:58.827Z,707.97
2022-08-05T06:08:32.745Z,712.10
2022-08-05T06:10:59.517Z,709.27
2022-08-05T06:13:26.739Z,706.33
2022-08-05T06:16:29.754Z,710.57
2022-08-05T06:18:39.700Z,710.47
2022-08-05T06:21:07.888Z,708.60
2022-08-05T06:23:44.056Z,708.77
2022-08-05T06:26:13.715Z,720.37
2022-08-05T06:28:47.568Z,711.43
2022-08-05T06:31:17.944Z,705.47
2022-08-05T06:34:06.010Z,710.70
2022-08-05T06:36:37.517Z,713.67
2022-08-05T06:39:18.919Z,715.90
2022-08-05T06:41:48.378Z,707.80
2022-08-05T06:44:15.083Z,707.57
2022-08-05T06:46:41.874Z,703.37
2022-08-05T06:49:08.998Z,709.47
2022-08-05T06:51:40.674Z,711.40
2022-08-05T06:54:07.369Z,710.17
2022-08-05T06:56:35.235Z,717.97
2022-08-05T06:59:01.820Z,714.73
2022-08-05T07:01:32.231Z,710.70
2022-08-05T07:03:59.429Z,710.03
2022-08-05T07:06:28.501Z,721.50
2022-08-05T07:08:55.206Z,708.07
2022-08-05T07:11:22.160Z,707.50
2022-08-05T07:13:57.730Z,710.30
2022-08-05T07:18:00.227Z,706.57
2022-08-05T07:19:53.804Z,710.50
2022-08-05T07:22:02.231Z,707.37
2022-08-05T07:24:29.879Z,711.20
2022-08-05T07:26:56.464Z,711.70
2022-08-05T07:30:22.964Z,703.80
2022-08-05T07:32:09.374Z,706.37
2022-08-05T07:34:40.476Z,717.10
2022-08-05T07:37:11.450Z,717.37
2022-08-05T07:40:26.498Z,708.77
2022-08-05T07:42:33.446Z,711.67
2022-08-05T07:45:00.561Z,713.50
2022-08-05T07:47:27.049Z,711.90
2022-08-05T07:50:08.881Z,714.90
2022-08-05T07:52:35.734Z,711.20
2022-08-05T07:55:02.167Z,710.97
2022-08-05T07:57:58.755Z,703.67
2022-08-05T08:00:28.637Z,715.37
2022-08-05T08:03:15.307Z,706.30
2022-08-05T08:05:45.926Z,714.37
2022-08-05T08:08:16.391Z,717.27
2022-08-05T08:10:48.789Z,708.10
2022-08-05T08:13:15.612Z,712.33
2022-08-05T08:16:49.761Z,712.57
2022-08-05T08:18:35.111Z,713.23
2022-08-05T08:21:04.207Z,719.27
2022-08-05T08:24:01.239Z,712.90
2022-08-05T08:26:27.146Z,715.43
2022-08-05T08:29:02.123Z,701.97
2022-08-05T08:31:42.766Z,688.53
2022-08-05T08:34:09.564Z,688.70
2022-08-05T08:36:47.617Z,687.47
2022-08-05T08:39:19.117Z,691.33
2022-08-05T08:41:52.579Z,682.60
2022-08-05T08:45:19.056Z,675.50
2022-08-05T08:47:22.295Z,687.73
2022-08-05T08:50:22.992Z,681.93
2022-08-05T08:52:51.359Z,686.37
2022-08-05T08:55:19.294Z,672.87
2022-08-05T08:57:57.891Z,683.70
2022-08-05T09:00:25.079Z,684.40
2022-08-05T09:02:52.710Z,683.90
2022-08-05T09:05:19.197Z,691.33
2022-08-05T09:08:05.524Z,686.87
2022-08-05T09:10:36.243Z,686.77
2022-08-05T09:13:06.703Z,690.03
2022-08-05T09:15:37.108Z,697.63
2022-08-05T09:18:03.757Z,697.93
2022-08-05T09:20:36.413Z,698.07
2022-08-05T09:23:05.207Z,707.90
2022-08-05T09:26:02.328Z,698.80
2022-08-05T09:28:21.047Z,709.70
2022-08-05T09:30:47.749Z,705.93
2022-08-05T09:33:17.206Z,697.93
2022-08-05T09:35:43.886Z,708.20
2022-08-05T09:38:12.749Z,704.17
2022-08-05T09:40:52.639Z,702.20
2022-08-05T09:43:20.387Z,706.43
2022-08-05T09:46:06.648Z,710.63
2022-08-05T09:48:33.339Z,710.60
2022-08-05T09:51:00.181Z,712.90
2022-08-05T09:53:54.602Z,718.30
2022-08-05T09:56:13.661Z,714.13
2022-08-05T09:58:41.913Z,722.00
2022-08-05T10:01:15.222Z,720.53
2022-08-05T10:03:58.589Z,713.50
2022-08-05T10:06:26.293Z,731.60
2022-08-05T10:08:55.371Z,729.83
2022-08-05T10:11:22.211Z,732.10
2022-08-05T10:13:49.525Z,737.00
2022-08-05T10:16:21.280Z,731.63
2022-08-05T10:18:48.074Z,737.70
2022-08-05T10:21:16.282Z,738.20
2022-08-05T10:23:59.444Z,737.67
2022-08-05T10:26:31.706Z,734.13
2022-08-05T10:29:00.401Z,732.60
2022-08-05T10:32:53.762Z,730.70
2022-08-05T10:34:13.387Z,734.27
2022-08-05T10:36:40.007Z,725.30
2022-08-05T10:39:15.220Z,727.13
2022-08-05T10:41:51.837Z,723.60
2022-08-05T10:44:18.510Z,721.70
2022-08-05T10:46:45.028Z,703.90
2022-08-05T10:49:16.623Z,706.50
2022-08-05T10:51:57.680Z,711.60
2022-08-05T10:54:29.889Z,714.13
2022-08-05T10:56:59.177Z,705.37
2022-08-05T11:00:02.127Z,720.63
2022-08-05T11:02:34.470Z,731.00
2022-08-05T11:04:58.631Z,723.10
2022-08-05T11:07:33.327Z,730.63
2022-08-05T11:10:13.173Z,736.80
2022-08-05T11:12:41.209Z,729.73
2022-08-05T11:15:19.289Z,733.30
2022-08-05T11:17:57.639Z,733.60
2022-08-05T11:20:27.083Z,715.47
2022-08-05T11:22:58.056Z,716.80
2022-08-05T11:26:04.903Z,710.67
2022-08-05T11:28:17.177Z,714.00
2022-08-05T11:30:43.912Z,717.43
2022-08-05T11:33:21.170Z,716.73
2022-08-05T11:36:08.042Z,718.80
2022-08-05T11:38:45.288Z,712.10
2022-08-05T11:41:35.103Z,698.30
2022-08-05T11:44:07.136Z,688.23
2022-08-05T11:46:34.894Z,695.33
2022-08-05T11:49:01.493Z,689.27
2022-08-05T11:51:44.320Z,682.30
2022-08-05T11:54:14.535Z,697.53
2022-08-05T11:56:41.384Z,688.57
2022-08-05T11:59:13.726Z,689.07
2022-08-05T12:01:40.482Z,689.23
2022-08-05T12:04:07.130Z,689.30
2022-08-05T12:06:33.580Z,696.40
2022-08-05T12:09:01.068Z,704.37
2022-08-05T12:11:40.139Z,704.10
2022-08-05T12:14:08.254Z,706.07
2022-08-05T12:16:38.383Z,702.37
2022-08-05T12:19:05.243Z,694.30
2022-08-05T12:21:39.297Z,707.33
2022-08-05T12:24:06.903Z,710.50
2022-08-05T12:26:33.803Z,707.00
2022-08-05T12:29:01.448Z,699.73
2022-08-05T12:31:33.659Z,707.80
2022-08-05T12:34:20.335Z,713.00
2022-08-05T12:36:48.102Z,710.23
2022-08-05T12:39:14.689Z,725.30
2022-08-05T12:41:44.124Z,736.33
2022-08-05T12:44:11.683Z,707.83
2022-08-05T12:46:41.011Z,713.17
2022-08-05T12:49:13.608Z,707.27
2022-08-05T12:52:12.755Z,704.87
2022-08-05T12:54:29.385Z,694.87
2022-08-05T12:56:55.858Z,683.30
2022-08-05T12:59:46.814Z,700.93
2022-08-05T13:02:09.949Z,684.07
2022-08-05T13:04:41.817Z,697.30
2022-08-05T13:07:41.340Z,681.40
2022-08-05T13:10:05.544Z,675.57
2022-08-05T13:12:31.985Z,672.73
2022-08-05T13:15:05.070Z,681.30
2022-08-05T13:17:41.666Z,688.17
2022-08-05T13:20:08.978Z,678.67
2022-08-05T13:22:37.891Z,680.77
2022-08-05T13:25:07.971Z,676.13
2022-08-05T13:27:45.337Z,693.23
2022-08-05T13:30:33.584Z,683.73
2022-08-05T13:33:02.246Z,682.13
2022-08-05T13:35:42.930Z,684.67
2022-08-05T13:38:28.130Z,681.53
2022-08-05T13:40:57.808Z,681.30
2022-08-05T13:43:24.623Z,692.17
2022-08-05T13:46:11.575Z,676.43
2022-08-05T13:48:57.169Z,683.77
2022-08-05T13:51:24.550Z,681.43
2022-08-05T13:53:50.980Z,689.07
2022-08-05T13:56:23.021Z,698.20
2022-08-05T13:58:53.053Z,688.30
2022-08-05T14:01:21.275Z,692.30
2022-08-05T14:03:53.971Z,691.90
2022-08-05T14:06:25.304Z,689.57
2022-08-05T14:08:53.495Z,680.83
2022-08-05T14:11:22.070Z,702.93
2022-08-05T14:13:48.682Z,691.50
2022-08-05T14:16:21.598Z,694.47
2022-08-05T14:18:48.101Z,693.60
2022-08-05T14:22:08.397Z,702.20
2022-08-05T14:24:02.447Z,695.40
2022-08-05T14:26:36.796Z,700.50
2022-08-05T14:29:15.714Z,696.23
2022-08-05T14:32:02.979Z,689.83
2022-08-05T14:34:29.740Z,686.67
2022-08-05T14:37:01.990Z,697.77
2022-08-05T14:39:28.559Z,693.30
2022-08-05T14:42:19.447Z,685.30
2022-08-05T14:44:42.124Z,695.57
2022-08-05T14:47:08.868Z,693.50
2022-08-05T14:49:58.927Z,690.27
2022-08-05T14:52:50.437Z,693.50
2022-08-05T14:55:08.357Z,691.70
2022-08-05T14:57:56.225Z,688.57
2022-08-05T15:00:28.115Z,696.07
2022-08-05T15:02:55.012Z,691.93
2022-08-05T15:05:21.516Z,692.80
2022-08-05T15:08:11.269Z,699.57
2022-08-05T15:10:34.399Z,700.80
2022-08-05T15:13:04.011Z,694.50
2022-08-05T15:15:54.522Z,701.30
2022-08-05T15:18:17.558Z,703.40
2022-08-05T15:20:44.013Z,702.83
2022-08-05T15:23:12.560Z,704.33
2022-08-05T15:25:51.185Z,698.53
2022-08-05T15:28:19.553Z,709.20
2022-08-05T15:30:53.126Z,697.30
2022-08-05T15:34:04.521Z,696.67
2022-08-05T15:36:06.278Z,686.57
2022-08-05T15:38:43.762Z,702.00
2022-08-05T15:41:20.987Z,697.40
2022-08-05T15:43:50.618Z,694.40
2022-08-05T15:46:17.433Z,695.63
2022-08-05T15:48:52.786Z,695.70
2022-08-05T15:52:04.228Z,692.53
2022-08-05T15:54:15.075Z,684.40
2022-08-05T15:56:42.276Z,695.70
2022-08-05T15:59:10.019Z,689.40
2022-08-05T16:01:52.635Z,701.60
2022-08-05T16:04:19.804Z,700.70
2022-08-05T16:06:46.259Z,699.30
2022-08-05T16:09:12.722Z,695.37
2022-08-05T16:11:42.964Z,697.00
2022-08-05T16:14:10.071Z,700.03
2022-08-05T16:16:44.013Z,696.50
2022-08-05T16:19:12.555Z,704.07
2022-08-05T16:22:01.213Z,696.07
2022-08-05T16:24:40.650Z,702.60
2022-08-05T16:27:16.478Z,699.40
2022-08-05T16:29:47.245Z,696.77
2022-08-05T16:32:16.951Z,704.47
2022-08-05T16:34:43.389Z,699.87
2022-08-05T16:38:00.392Z,700.30
2022-08-05T16:40:06.026Z,706.10
2022-08-05T16:42:34.330Z,709.00
2022-08-05T16:45:01.090Z,705.83
2022-08-05T16:47:35.740Z,704.10
2022-08-05T16:50:02.965Z,703.93
2022-08-05T16:52:33.321Z,706.00
2022-08-05T16:55:00.072Z,707.50
2022-08-05T16:57:50.476Z,711.80
2022-08-05T17:00:14.086Z,707.80
2022-08-05T17:02:40.689Z,706.60
2022-08-05T17:05:07.205Z,712.67
2022-08-05T17:07:39.028Z,704.90
2022-08-05T17:10:09.906Z,710.20
2022-08-05T17:12:51.486Z,717.07
2022-08-05T17:15:19.646Z,712.13
2022-08-05T17:17:48.953Z,703.10
2022-08-05T17:20:21.763Z,713.67
2022-08-05T17:22:55.384Z,711.17
2022-08-05T17:25:39.459Z,714.20
2022-08-05T17:28:07.732Z,708.80
2022-08-05T17:30:42.536Z,713.70
2022-08-05T17:33:16.689Z,712.27
2022-08-05T17:36:07.276Z,709.10
2022-08-05T17:38:29.571Z,710.20
2022-08-05T17:40:56.059Z,712.90
2022-08-05T17:43:46.826Z,710.60
2022-08-05T17:46:10.255Z,714.17
2022-08-05T17:48:36.835Z,721.13
2022-08-05T17:51:03.320Z,722.80
2022-08-05T17:53:35.933Z,714.30
2022-08-05T17:56:02.815Z,716.70
2022-08-05T17:58:32.274Z,720.80
2022-08-05T18:00:59.320Z,718.50
2022-08-05T18:06:15.037Z,711.67
2022-08-05T18:08:44.854Z,721.33
2022-08-05T18:11:24.439Z,721.73
2022-08-05T18:13:56.231Z,717.37
2022-08-05T18:16:22.700Z,690.83
2022-08-05T18:18:50.079Z,682.20
2022-08-05T18:21:21.378Z,684.30
2022-08-05T18:23:49.572Z,689.20
2022-08-05T18:26:20.496Z,690.30
2022-08-05T18:28:46.940Z,695.30
2022-08-05T18:31:15.702Z,688.87
2022-08-05T18:33:47.335Z,684.17
2022-08-05T18:36:19.081Z,692.30
2022-08-05T18:38:45.838Z,680.87
2022-08-05T18:41:57.138Z,692.03
2022-08-05T18:43:58.694Z,691.43
2022-08-05T18:46:33.036Z,685.50
2022-08-05T18:48:59.470Z,692.63
2022-08-05T18:52:06.151Z,691.47
2022-08-05T18:54:12.337Z,692.60
2022-08-05T18:56:39.673Z,691.73
2022-08-05T18:59:43.441Z,691.33
2022-08-05T19:01:56.930Z,692.10
2022-08-05T19:04:25.099Z,694.40
2022-08-05T19:06:51.650Z,688.87
2022-08-05T19:09:20.104Z,686.80
2022-08-05T19:12:00.129Z,695.20
2022-08-05T19:14:52.191Z,692.97
2022-08-05T19:17:14.061Z,682.23
2022-08-05T19:19:44.095Z,692.63
2022-08-05T19:22:13.613Z,690.40
2022-08-05T19:24:54.500Z,689.53
2022-08-05T19:27:23.333Z,691.10
2022-08-05T19:29:49.886Z,689.70
2022-08-05T19:32:16.335Z,688.53
2022-08-05T19:34:54.901Z,692.50
2022-08-05T19:37:22.209Z,689.97
2022-08-05T19:39:56.689Z,689.93
2022-08-05T19:42:34.931Z,698.63
2022-08-05T19:45:02.586Z,691.20
2022-08-05T19:47:32.261Z,684.67
2022-08-05T19:50:00.404Z,692.07
2022-08-05T19:52:31.656Z,694.43
2022-08-05T19:55:00.406Z,695.33
2022-08-05T19:57:47.325Z,692.37
2022-08-05T20:00:20.803Z,697.20
2022-08-05T20:02:47.350Z,691.97
2022-08-05T20:05:16.582Z,695.37
2022-08-05T20:07:53.987Z,690.17
2022-08-05T20:10:24.469Z,695.63
2022-08-05T20:12:51.669Z,699.70
2022-08-05T20:15:22.916Z,697.23
2022-08-05T20:18:10.017Z,701.13
2022-08-05T20:20:50.971Z,698.20
2022-08-05T20:23:17.459Z,697.30
2022-08-05T20:25:46.145Z,699.87
2022-08-05T20:28:15.646Z,705.30
2022-08-05T20:30:42.094Z,704.37
2022-08-05T20:33:08.560Z,698.73
2022-08-05T20:35:40.295Z,709.90
2022-08-05T20:38:11.695Z,696.30
2022-08-05T20:40:46.747Z,700.40
2022-08-05T20:43:16.911Z,700.77
2022-08-05T20:46:00.371Z,704.40
2022-08-05T20:48:26.915Z,700.30
2022-08-05T20:50:53.392Z,702.20
2022-08-05T20:53:40.568Z,709.00
2022-08-05T20:56:09.153Z,703.70
2022-08-05T20:58:36.085Z,698.10
2022-08-05T21:01:03.607Z,702.40
2022-08-05T21:03:30.572Z,702.23
2022-08-05T21:06:01.212Z,710.70
2022-08-05T21:08:32.985Z,707.30
2022-08-05T21:11:10.169Z,704.67
2022-08-05T21:13:48.413Z,702.00
2022-08-05T21:16:23.335Z,702.70
2022-08-05T21:18:56.705Z,707.50
2022-08-05T21:21:26.673Z,707.13
2022-08-05T21:24:06.356Z,701.50
2022-08-05T21:26:32.814Z,711.27
2022-08-05T21:29:03.791Z,707.60
2022-08-05T21:31:41.372Z,709.13
2022-08-05T21:34:08.120Z,714.27
2022-08-05T21:36:36.920Z,716.40
2022-08-05T21:39:03.422Z,705.60
2022-08-05T21:41:34.027Z,711.37
2022-08-05T21:44:04.444Z,717.00
2022-08-05T21:46:31.292Z,715.30
2022-08-05T21:48:59.831Z,718.00
2022-08-05T21:52:23.004Z,711.77
2022-08-05T21:54:12.948Z,715.10
2022-08-05T21:56:44.224Z,722.13
2022-08-05T21:59:22.470Z,716.73
2022-08-05T22:01:51.599Z,712.90
2022-08-05T22:04:21.240Z,713.17
2022-08-05T22:06:52.003Z,712.77
2022-08-05T22:09:21.503Z,716.07
2022-08-05T22:11:48.811Z,718.93
2022-08-05T22:14:34.305Z,722.80
2022-08-05T22:17:03.939Z,722.03
2022-08-05T22:20:00.467Z,714.67
2022-08-05T22:22:27.018Z,716.17
2022-08-05T22:24:55.821Z,724.40
2022-08-05T22:27:22.574Z,722.00
2022-08-05T22:29:49.029Z,714.00
2022-08-05T22:32:20.794Z,716.67
2022-08-05T22:34:49.466Z,722.00
2022-08-05T22:37:15.966Z,723.67
2022-08-05T22:39:42.454Z,722.20
2022-08-05T22:42:15.294Z,723.17
2022-08-05T22:44:56.314Z,723.50
2022-08-05T22:47:28.617Z,721.67
2022-08-05T22:50:20.748Z,709.37
2022-08-05T22:52:43.387Z,722.07
2022-08-05T22:55:19.274Z,719.13
2022-08-05T22:57:46.515Z,721.00
2022-08-05T23:00:17.948Z,725.13
2022-08-05T23:02:47.637Z,718.43
2022-08-05T23:05:14.819Z,718.07
2022-08-05T23:07:44.736Z,716.70
2022-08-05T23:10:12.150Z,722.20
2022-08-05T23:12:38.627Z,724.60
2022-08-05T23:15:09.104Z,721.80
2022-08-05T23:17:37.948Z,716.17
2022-08-05T23:20:22.231Z,712.73
2022-08-05T23:22:50.916Z,713.57
2022-08-05T23:25:54.697Z,714.87
2022-08-05T23:28:09.074Z,714.10
2022-08-05T23:30:35.497Z,710.00
2022-08-05T23:33:07.224Z,715.17
2022-08-05T23:35:43.010Z,712.23
2022-08-05T23:38:12.008Z,716.20
2022-08-05T23:40:38.676Z,716.17
2022-08-05T23:43:24.394Z,713.20
2022-08-05T23:45:55.201Z,718.63
2022-08-05T23:48:22.136Z,722.87
2022-08-05T23:50:52.778Z,715.17
2022-08-05T23:53:22.904Z,715.60
2022-08-05T23:55:49.631Z,721.53
2022-08-05T23:58:31.849Z,721.27
